Algeciras Jet — 5BLY2 — position and weather

sailwx.info

Track history (hours):
 
Tides and Currents Weather Stations Pressure Air Temp Water Temp Dewpoint Dewpoint Depression Visibility Wind Speed Wind Dir Waves Ship Positions

Algeciras Jet

Last reported at 2018-Feb-22 07:06 UTC. Time now 2018-Feb-23 10:53 UTC.
Position N 36°01' W 005°36'.

Length 60 m; draft 2.2 m.

Type: High speed craft. MMSI: 209936000.

Date/timePositionNaut miles runAvg speedWind from/ knotsBaromVisibWave heightAir tempDewpointWater temp
2018-Feb-22 07:06N 36°01' W 005°36'0 0.0
2018-Feb-21 22:47N 36°01' W 005°36'825.5
2018-Feb-21 22:27N 35°54' W 005°43'8 5.7
2018-Feb-21 21:02N 35°47' W 005°48'1 8.2
2018-Feb-21 20:58N 35°48' W 005°47'1022.6
2018-Feb-21 20:30N 35°57' W 005°42'612.2
2018-Feb-21 20:00N 36°01' W 005°36'0 0.0
2018-Feb-21 19:30N 36°01' W 005°36'816.2
2018-Feb-21 19:00N 35°55' W 005°43'8 0.4
2018-Feb-20 22:38N 36°01' W 005°36'322.3
2018-Feb-20 22:30N 35°58' W 005°38'13 8.6
2018-Feb-20 20:57N 35°47' W 005°48'920.4
2018-Feb-20 20:30N 35°56' W 005°45'8 6.5
2018-Feb-20 19:13N 36°01' W 005°36'524.5
2018-Feb-20 19:00N 35°56' W 005°40'1 0.1
2018-Feb-19 22:41N 35°58' W 005°39'523.9
2018-Feb-19 22:29N 35°54' W 005°43'8 2.5
2018-Feb-19 19:10N 36°01' W 005°36'3 1.2
2018-Feb-19 16:22N 35°58' W 005°39'3 3.1
2018-Feb-19 15:18N 36°01' W 005°36'3 1.1
2018-Feb-19 12:17N 35°59' W 005°39'3 3.2
2018-Feb-19 11:16N 36°01' W 005°36'  
2018-Feb-15 22:56N 36°01' W 005°36'920.5
2018-Feb-15 22:30N 35°54' W 005°44'9 2.7
2018-Feb-15 19:15N 36°01' W 005°36'311.6
2018-Feb-15 19:01N 35°59' W 005°38'3 0.1
2018-Feb-14 22:58N 36°01' W 005°36'1021.1
2018-Feb-14 22:30N 35°53' W 005°45'7 3.0
2018-Feb-14 20:18N 35°58' W 005°39'3 3.3
2018-Feb-14 19:16N 36°01' W 005°36'0 0.0
2018-Feb-14 15:06N 36°01' W 005°36'0 0.0
2018-Feb-14 09:16N 36°01' W 005°36'4 0.3
2018-Feb-13 20:19N 35°59' W 005°40'4 0.1
2018-Feb-12 19:25N 36°01' W 005°36'0 0.0
2018-Feb-12 11:23N 36°01' W 005°36'  
Track history (hours):
 
Tides and Currents Weather Stations Pressure Air Temp Water Temp Dewpoint Dewpoint Depression Visibility Wind Speed Wind Dir Waves Ship Positions

Algeciras Jet

Last reported at 2018-Feb-22 07:06 UTC. Time now 2018-Feb-23 10:53 UTC.
Position N 36°01' W 005°36'.

Length 60 m; draft 2.2 m.

Type: High speed craft. MMSI: 209936000.

Date/timePositionNaut miles runAvg speedWind from/ knotsBaromVisibWave heightAir tempDewpointWater temp
2018-Feb-22 07:06N 36°01' W 005°36'0 0.0
2018-Feb-21 22:47N 36°01' W 005°36'825.5
2018-Feb-21 22:27N 35°54' W 005°43'8 5.7
2018-Feb-21 21:02N 35°47' W 005°48'1 8.2
2018-Feb-21 20:58N 35°48' W 005°47'1022.6
2018-Feb-21 20:30N 35°57' W 005°42'612.2
2018-Feb-21 20:00N 36°01' W 005°36'0 0.0
2018-Feb-21 19:30N 36°01' W 005°36'816.2
2018-Feb-21 19:00N 35°55' W 005°43'8 0.4
2018-Feb-20 22:38N 36°01' W 005°36'322.3
2018-Feb-20 22:30N 35°58' W 005°38'13 8.6
2018-Feb-20 20:57N 35°47' W 005°48'920.4
2018-Feb-20 20:30N 35°56' W 005°45'8 6.5
2018-Feb-20 19:13N 36°01' W 005°36'524.5
2018-Feb-20 19:00N 35°56' W 005°40'1 0.1
2018-Feb-19 22:41N 35°58' W 005°39'523.9
2018-Feb-19 22:29N 35°54' W 005°43'8 2.5
2018-Feb-19 19:10N 36°01' W 005°36'3 1.2
2018-Feb-19 16:22N 35°58' W 005°39'3 3.1
2018-Feb-19 15:18N 36°01' W 005°36'3 1.1
2018-Feb-19 12:17N 35°59' W 005°39'3 3.2
2018-Feb-19 11:16N 36°01' W 005°36'  
2018-Feb-15 22:56N 36°01' W 005°36'920.5
2018-Feb-15 22:30N 35°54' W 005°44'9 2.7
2018-Feb-15 19:15N 36°01' W 005°36'311.6
2018-Feb-15 19:01N 35°59' W 005°38'3 0.1
2018-Feb-14 22:58N 36°01' W 005°36'1021.1
2018-Feb-14 22:30N 35°53' W 005°45'7 3.0
2018-Feb-14 20:18N 35°58' W 005°39'3 3.3
2018-Feb-14 19:16N 36°01' W 005°36'0 0.0
2018-Feb-14 15:06N 36°01' W 005°36'0 0.0
2018-Feb-14 09:16N 36°01' W 005°36'4 0.3
2018-Feb-13 20:19N 35°59' W 005°40'4 0.1
2018-Feb-12 19:25N 36°01' W 005°36'0 0.0
2018-Feb-12 11:23N 36°01' W 005°36'  

Dump ship's entire track history